createdAt,value
2023-01-22T00:00:30.341Z,4.35
2023-01-22T00:05:32.167Z,4.25
2023-01-22T00:10:34.001Z,4.20
2023-01-22T00:15:38.921Z,4.45
2023-01-22T00:20:41.763Z,4.93
2023-01-22T00:25:44.023Z,4.05
2023-01-22T00:30:45.935Z,3.83
2023-01-22T00:35:47.742Z,3.53
2023-01-22T00:40:49.573Z,3.75
2023-01-22T00:45:51.424Z,3.80
2023-01-22T00:50:55.343Z,4.10
2023-01-22T00:55:59.602Z,3.95
2023-01-22T01:01:03.023Z,4.28
2023-01-22T01:06:13.788Z,3.72
2023-01-22T01:11:22.141Z,3.97
2023-01-22T01:16:30.008Z,4.70
2023-01-22T01:21:34.524Z,3.97
2023-01-22T01:26:37.149Z,3.90
2023-01-22T01:31:39.328Z,4.28
2023-01-22T01:36:50.221Z,10.55
2023-01-22T01:41:53.318Z,5.18
2023-01-22T01:47:01.293Z,4.45
2023-01-22T01:52:09.468Z,4.15
2023-01-22T02:02:20.918Z,4.07
2023-01-22T02:07:23.928Z,4.05
2023-01-22T02:12:25.886Z,5.15
2023-01-22T02:17:28.055Z,5.20
2023-01-22T02:22:32.483Z,5.57
2023-01-22T02:27:35.799Z,6.20
2023-01-22T02:32:40.330Z,4.50
2023-01-22T02:37:42.241Z,5.03
2023-01-22T02:42:44.333Z,4.63
2023-01-22T02:47:46.925Z,5.60
2023-01-22T02:52:48.781Z,5.88
2023-01-22T02:57:50.678Z,5.22
2023-01-22T03:02:52.537Z,6.03
2023-01-22T03:07:54.435Z,5.18
2023-01-22T03:13:14.952Z,5.25
2023-01-22T03:18:36.835Z,5.53
2023-01-22T03:23:38.974Z,6.15
2023-01-22T03:28:40.982Z,5.95
2023-01-22T03:33:43.762Z,5.55
2023-01-22T03:38:46.779Z,6.15
2023-01-22T03:43:53.785Z,6.65
2023-01-22T03:49:00.889Z,6.88
2023-01-22T03:54:02.801Z,7.63
2023-01-22T03:59:04.934Z,5.28
2023-01-22T04:04:08.330Z,6.47
2023-01-22T04:09:10.214Z,7.75
2023-01-22T04:14:16.358Z,7.03
2023-01-22T04:19:33.186Z,7.72
2023-01-22T04:24:37.824Z,7.03
2023-01-22T04:29:40.818Z,7.32
2023-01-22T04:34:44.637Z,7.28
2023-01-22T04:39:58.910Z,7.20
2023-01-22T04:45:00.869Z,7.07
2023-01-22T04:50:05.563Z,7.32
2023-01-22T04:55:09.721Z,7.25
2023-01-22T05:00:21.470Z,8.00
2023-01-22T05:05:23.951Z,7.22
2023-01-22T05:10:26.869Z,6.95
2023-01-22T05:15:29.022Z,6.53
2023-01-22T05:20:34.219Z,6.85
2023-01-22T05:25:37.006Z,6.75
2023-01-22T05:30:40.213Z,8.13
2023-01-22T05:36:02.681Z,7.63
2023-01-22T05:41:04.978Z,7.10
2023-01-22T05:46:11.515Z,8.35
2023-01-22T05:51:16.568Z,8.82
2023-01-22T05:56:18.905Z,10.05
2023-01-22T06:01:21.566Z,8.82
2023-01-22T06:06:26.671Z,9.60
2023-01-22T06:11:30.500Z,9.93
2023-01-22T06:16:33.112Z,11.65
2023-01-22T06:21:43.827Z,9.03
2023-01-22T06:26:46.333Z,12.30
2023-01-22T06:31:49.996Z,15.57
2023-01-22T06:36:54.156Z,10.25
2023-01-22T06:41:58.217Z,11.45
2023-01-22T06:47:00.468Z,12.73
2023-01-22T06:52:07.171Z,7.30
2023-01-22T06:57:09.059Z,16.15
2023-01-22T07:02:17.180Z,17.40
2023-01-22T07:07:19.002Z,9.68
2023-01-22T07:12:20.838Z,9.10
2023-01-22T07:17:22.661Z,9.88
2023-01-22T07:22:24.534Z,10.27
2023-01-22T07:27:27.895Z,8.60
2023-01-22T07:32:29.790Z,7.57
2023-01-22T07:37:31.633Z,11.07
2023-01-22T07:42:33.424Z,11.85
2023-01-22T07:47:35.185Z,13.65
2023-01-22T07:52:36.981Z,8.77
2023-01-22T07:57:38.802Z,9.95
2023-01-22T08:02:42.230Z,11.73
2023-01-22T08:07:44.233Z,9.15
2023-01-22T08:12:46.776Z,9.45
2023-01-22T08:17:53.326Z,7.53
2023-01-22T08:23:01.996Z,11.80
2023-01-22T08:28:05.659Z,9.13
2023-01-22T08:33:07.622Z,7.32
2023-01-22T08:38:09.408Z,10.48
2023-01-22T08:43:11.206Z,9.43
2023-01-22T08:48:13.062Z,17.95
2023-01-22T08:53:14.831Z,13.43
2023-01-22T08:58:16.592Z,12.80
2023-01-22T09:03:18.459Z,21.17
2023-01-22T09:08:20.478Z,17.67
2023-01-22T09:13:22.336Z,11.55
2023-01-22T09:18:24.288Z,9.98
2023-01-22T09:23:26.102Z,16.10
2023-01-22T09:28:27.880Z,12.77
2023-01-22T09:33:29.680Z,15.77
2023-01-22T09:38:31.441Z,9.27
2023-01-22T09:43:37.235Z,9.48
2023-01-22T09:48:47.047Z,9.45
2023-01-22T09:54:01.272Z,10.88
2023-01-22T09:59:05.994Z,10.13
2023-01-22T10:04:25.278Z,9.90
2023-01-22T10:09:31.148Z,9.20
2023-01-22T10:14:33.036Z,9.73
2023-01-22T10:19:45.639Z,12.70
2023-01-22T10:24:47.451Z,10.57
2023-01-22T10:30:01.228Z,10.38
2023-01-22T10:35:11.907Z,10.82
2023-01-22T10:40:38.165Z,12.05
2023-01-22T10:45:55.104Z,11.90
2023-01-22T10:51:12.883Z,12.93
2023-01-22T10:56:27.517Z,11.32
2023-01-22T11:01:36.000Z,12.13
2023-01-22T11:06:42.580Z,11.63
2023-01-22T11:11:55.093Z,13.13
2023-01-22T11:17:03.331Z,12.55
2023-01-22T11:22:20.842Z,10.88
2023-01-22T11:27:55.106Z,12.45
2023-01-22T11:33:06.327Z,11.98
2023-01-22T11:38:10.941Z,11.45
2023-01-22T11:43:18.987Z,10.93
2023-01-22T11:48:42.605Z,10.60
2023-01-22T11:53:58.247Z,10.15
2023-01-22T11:59:08.886Z,11.88
2023-01-22T12:04:40.229Z,11.95
2023-01-22T12:09:47.674Z,9.90
2023-01-22T12:15:24.931Z,12.93
2023-01-22T12:20:40.213Z,13.75
2023-01-22T12:25:48.805Z,10.38
2023-01-22T12:31:00.820Z,12.50
2023-01-22T12:36:05.550Z,11.20
2023-01-22T12:41:25.512Z,11.35
2023-01-22T12:51:47.849Z,13.48
2023-01-22T12:56:51.380Z,12.43
2023-01-22T13:02:00.180Z,13.30
2023-01-22T13:07:16.931Z,13.23
2023-01-22T13:12:27.162Z,14.07
2023-01-22T13:17:30.643Z,12.77
2023-01-22T13:22:34.048Z,12.45
2023-01-22T13:27:37.510Z,12.98
2023-01-22T13:32:39.450Z,12.60
2023-01-22T13:37:44.258Z,12.18
2023-01-22T13:42:47.051Z,12.93
2023-01-22T13:47:50.817Z,12.52
2023-01-22T13:52:52.920Z,10.75
2023-01-22T13:57:57.265Z,10.00
2023-01-22T14:03:00.138Z,10.70
2023-01-22T14:08:08.150Z,11.30
2023-01-22T14:13:12.244Z,11.35
2023-01-22T14:18:16.832Z,11.98
2023-01-22T14:23:18.721Z,12.05
2023-01-22T14:28:22.430Z,10.50
2023-01-22T14:33:31.106Z,11.55
2023-01-22T14:38:33.111Z,11.17
2023-01-22T14:43:35.725Z,10.23
2023-01-22T14:48:38.675Z,10.70
2023-01-22T14:53:40.593Z,10.85
2023-01-22T14:58:42.482Z,11.45
2023-01-22T15:03:44.349Z,10.75
2023-01-22T15:08:46.266Z,8.95
2023-01-22T15:13:49.547Z,8.80
2023-01-22T15:18:54.717Z,8.18
2023-01-22T15:23:56.582Z,9.07
2023-01-22T15:28:58.429Z,7.82
2023-01-22T15:34:02.149Z,7.25
2023-01-22T15:39:04.112Z,9.02
2023-01-22T15:44:07.161Z,8.80
2023-01-22T15:49:10.870Z,8.60
2023-01-22T15:54:15.667Z,9.88
2023-01-22T15:59:18.140Z,12.95
2023-01-22T16:04:20.404Z,8.25
2023-01-22T16:09:22.512Z,6.85
2023-01-22T16:14:24.623Z,7.68
2023-01-22T16:19:27.027Z,7.60
2023-01-22T16:24:29.404Z,10.48
2023-01-22T16:29:31.757Z,8.82
2023-01-22T16:34:33.839Z,8.77
2023-01-22T16:39:36.922Z,7.90
2023-01-22T16:44:38.791Z,6.68
2023-01-22T16:49:40.693Z,7.60
2023-01-22T16:54:42.846Z,7.75
2023-01-22T16:59:45.053Z,7.95
2023-01-22T17:04:46.984Z,8.00
2023-01-22T17:09:48.922Z,8.43
2023-01-22T17:14:53.077Z,8.13
2023-01-22T17:19:55.067Z,7.57
2023-01-22T17:24:56.872Z,10.13
2023-01-22T17:29:58.789Z,8.75
2023-01-22T17:35:01.006Z,8.20
2023-01-22T17:40:03.713Z,10.40
2023-01-22T17:45:06.114Z,8.43
2023-01-22T17:50:08.863Z,8.90
2023-01-22T17:55:10.749Z,9.60
2023-01-22T18:00:13.105Z,9.32
2023-01-22T18:05:14.939Z,9.02
2023-01-22T18:10:17.481Z,11.30
2023-01-22T18:15:19.552Z,9.85
2023-01-22T18:20:21.741Z,9.93
2023-01-22T18:25:23.590Z,9.13
2023-01-22T18:30:26.852Z,8.88
2023-01-22T18:35:29.561Z,9.32
2023-01-22T18:40:32.063Z,9.10
2023-01-22T18:45:40.300Z,8.65
2023-01-22T18:50:42.513Z,15.18
2023-01-22T18:55:44.397Z,10.98
2023-01-22T19:00:46.237Z,8.77
2023-01-22T19:05:48.081Z,8.65
2023-01-22T19:10:50.269Z,9.75
2023-01-22T19:15:52.571Z,10.13
2023-01-22T19:20:54.731Z,9.30
2023-01-22T19:26:23.894Z,9.38
2023-01-22T19:31:27.617Z,10.18
2023-01-22T19:36:32.247Z,10.10
2023-01-22T19:41:34.125Z,7.78
2023-01-22T19:46:40.289Z,7.68
2023-01-22T19:51:42.277Z,8.25
2023-01-22T19:56:45.845Z,8.20
2023-01-22T20:01:48.952Z,8.27
2023-01-22T20:06:55.858Z,7.50
2023-01-22T20:11:58.740Z,7.78
2023-01-22T20:17:02.042Z,8.60
2023-01-22T20:22:07.058Z,8.77
2023-01-22T20:27:09.510Z,7.93
2023-01-22T20:32:11.432Z,9.10
2023-01-22T20:37:13.248Z,8.45
2023-01-22T20:42:15.123Z,8.70
2023-01-22T20:47:17.245Z,8.32
2023-01-22T20:52:20.058Z,8.70
2023-01-22T20:57:22.112Z,7.00
2023-01-22T21:02:24.172Z,7.85
2023-01-22T21:07:26.025Z,9.48
2023-01-22T21:12:27.870Z,10.48
2023-01-22T21:17:31.287Z,10.07
2023-01-22T21:22:33.300Z,8.68
2023-01-22T21:27:35.202Z,8.90
2023-01-22T21:32:37.074Z,9.25
2023-01-22T21:37:38.912Z,9.57
2023-01-22T21:43:00.222Z,9.65
2023-01-22T21:48:02.067Z,9.27
2023-01-22T21:53:03.906Z,8.95
2023-01-22T21:58:08.549Z,9.32
2023-01-22T22:03:10.784Z,9.20
2023-01-22T22:08:12.629Z,8.70
2023-01-22T22:13:14.457Z,10.02
2023-01-22T22:18:16.281Z,9.38
2023-01-22T22:23:18.155Z,10.77
2023-01-22T22:28:19.997Z,10.50
2023-01-22T22:33:21.809Z,10.48
2023-01-22T22:38:23.666Z,10.70
2023-01-22T22:43:25.790Z,10.55
2023-01-22T22:48:27.885Z,11.15
2023-01-22T22:53:29.770Z,10.88
2023-01-22T22:58:32.223Z,11.10
2023-01-22T23:03:37.109Z,10.20
2023-01-22T23:08:40.682Z,11.38
2023-01-22T23:13:48.729Z,12.02
2023-01-22T23:18:51.972Z,10.52
2023-01-22T23:23:54.941Z,11.95
2023-01-22T23:29:00.615Z,12.05
2023-01-22T23:34:04.679Z,11.63
2023-01-22T23:39:06.611Z,12.10
2023-01-22T23:44:08.541Z,11.40
2023-01-22T23:49:10.854Z,12.82
2023-01-22T23:54:13.069Z,15.00
2023-01-22T23:59:14.922Z,15.73
